Harrisville, Mississippi
Current Conditions -  °F | °C
As of 6:54 PM on Monday 26 Jan 2015 (Local Time) from KJAN Reporting Station
Clear Clear  
Wind Chill: 39°   Ceiling: Unl
Heat Index: 43°   Visibility: 10mi
Dew Point: 33°   Wind: 7mph
Humidity: 68%   Direction: 220°SW
Pressure: 30.03"   Gusts: NA
Location:  31.97°N, 90.08°W
Report Text: KJAN 270054Z 22006KT 10SM CLR 06/01 A3003 RMK AO2 SLP168 T00610006
Loading
Personal Weather Stations






























Interactive Weather Map New forecast layout! Learn more

10-Day Weather Forecast

Advertisements
Track Severe Weather on mobile